OIZJ  Jask Airport

Add Bookmark

Jask, Iran

Status
Operational
Latitude Longitude
25° 39' 12" N 57° 47' 57" E
25.653601 57.799301
Local (DST + 5) UTC (GMT + 4)
Sep 19, 2014 08:16 Sep 19, 2014 03:46
Sunrise-Sunset Local UTC
Begin Civil Twilight 06:02 01:32
Sunrise 06:25 01:55
Sunset 06:40 14:10
End Civil Twilight 07:02 14:32

Current Weather

METAR Observed MVFR
OIZJ 190300Z 11010KT 7000 BKN015 30/27 Q1007 Fri, Sep 19, 2014 @ 03:00 UTC
(46 Minutes ago)
Marginal Visual Flight Rules
Wind Visibility Clouds Conditions
110° at 10 knots (19 kph) 7000 meters
  • Broken at 1,500' AGL
  • No significant weather
Temperatures Readings Precipitation
Current Temp 30°C (86°F)
Dewpoint 27°C (81°F)
Heat Index 39°C (102°F)
Humidity 84%
Altimeter 29.73"Hg
Sea Level Pressure 1007mb
Field Elevation 13.12'
None Recorded

Additional weather within a 185.2km radius of OIZJ

Map ICAO Location
OMFJ 159.8km W (248°)
OIKO 178.5km N (337°)

24 Hour Weather History

Loading
-

24 Hour Weather Graphs

Loading
-

CheckWX.com is intended as a tool to help pilots better visualize weather data. It is not intended as a substitute for an official weather briefing obtained from a Flight Service Station. CheckWX.com does not meet the FAA requirements for an official pre-flight weather briefing. Therefore, it's important that pilots still call and obtain an official FSS pre-flight weather briefing.